Latest Coastal Weather Observations for Hobart Airport

IDT60701

Issued at 5:25 am EST Saturday 19 April 2014 (issued every 10 minutes, with the page automatically refreshed every 10 minutes)

About coastal observations | Map of coastal stations | Coastal observations for TAS | Marine services | Other Formats
Station Details ID: 094008 Name: HOBART AIRPORT Lat: -42.83 Lon: 147.50 Height: 4.0 m
Data from the previous 72 hours. | See also: Recent months at Hobart Airport
Date/Time
EST
Temp

°C
Wind Pressure Rain
since 9am
mm
Weather Cloud Vis
km
Sea
Height
m
Swell
Dir
 
Speed
knots
Gust
knots
hPa Trend Height
m
Period
s
Dir
19/05:00am 9.1 W 8 9 1014.2 - 0.2 - Mostly clear 10 - - - -
19/04:30am 9.5 W 11 16 1013.9 - 0.2 - Mostly clear 10 - - - -
19/04:00am 10.0 WSW 11 15 1014.0 - 0.2 - Mostly clear 10 - - - -
19/03:30am 10.3 WSW 9 16 1013.8 - 0.2 - Mostly clear 10 - - - -
19/03:00am 10.4 WSW 11 19 1013.6 R 0.2 Fine Mostly clear 40 - - - -
19/02:30am 10.3 WSW 12 16 1013.6 - 0.2 - Mostly clear 10 - - - -
19/02:00am 10.5 W 11 19 1013.7 - 0.2 - Mostly clear 10 - - - -
19/01:30am 10.2 W 9 14 1013.7 - 0.2 - Mostly clear 10 - - - -
19/01:00am 10.5 WSW 9 14 1013.6 - 0.2 - Mostly clear 10 - - - -
19/12:30am 10.6 WSW 10 18 1013.5 - 0.2 - Mostly clear 10 - - - -
19/12:00am 10.6 WSW 10 15 1013.6 R 0.2 Fine Mostly clear 40 - - - -
 
Date/Time
EST
Temp

°C
Wind Pressure Rain
since 9am
mm
Weather Cloud Vis
km
Sea
Height
m
Swell
Dir
 
Speed
knots
Gust
knots
hPa Trend Height
m
Period
s
Dir
18/11:30pm 11.2 WSW 12 17 1013.3 - 0.2 - Mostly clear 10 - - - -
18/11:00pm 11.1 SW 12 18 1013.5 - 0.2 - Mostly clear 10 - - - -
18/10:30pm 11.5 WSW 10 14 1013.3 - 0.2 - Mostly clear 10 - - - -
18/10:00pm 11.0 WSW 9 13 1013.3 - 0.2 - Mostly clear 10 - - - -
18/09:30pm 11.2 WSW 10 15 1012.9 - 0.2 - Mostly clear 10 - - - -
18/09:00pm 11.4 SW 11 15 1012.9 R 0.2 Fine Mostly clear 40 - - - -
18/08:30pm 11.7 WSW 11 19 1012.5 - 0.2 - Mostly clear 10 - - - -
18/08:00pm 11.9 WSW 11 16 1012.2 - 0.2 - Mostly clear 10 - - - -
18/07:30pm 11.8 WSW 13 19 1012.0 - 0.2 - Mostly clear 10 - - - -
18/07:00pm 12.0 WSW 16 21 1011.6 - 0.2 - Mostly clear 10 - - - -
18/06:30pm 12.0 WSW 14 19 1011.2 - 0.2 - Mostly clear 10 - - - -
18/06:00pm 11.9 SW 12 22 1011.0 R 0.2 Haze Mostly clear 30 - - - -
18/05:30pm 12.7 SW 12 20 1010.6 - 0.2 - Mostly clear 10 - - - -
18/05:00pm 13.0 WSW 17 23 1010.1 - 0.2 - Mostly clear 10 - - - -
18/04:30pm 14.1 SW 18 28 1009.5 - 0.2 - Partly cloudy 10 - - - -
18/04:00pm 14.3 SW 18 26 1009.1 - 0.2 - Partly cloudy 10 - - - -
18/03:30pm 14.5 SW 15 21 1008.6 - 0.2 - Mostly clear 10 - - - -
18/03:00pm 14.5 SW 17 25 1008.3 R 0.2 Fine Mostly cloudy 30 - - - -
18/02:57pm 14.5 SW 15 25 1008.2 - 0.2 - Mostly clear 10 - - - -
18/02:30pm 14.7 WSW 11 14 1008.1 - 0.2 - Mostly clear 10 - - - -
18/02:00pm 14.6 WSW 10 15 1008.0 - 0.2 - Mostly clear 10 - - - -
18/01:30pm 14.1 W 9 14 1008.0 - 0.2 - Partly cloudy 10 - - - -
18/01:00pm 13.6 WNW 12 18 1008.1 - 0.2 - Partly cloudy 10 - - - -
18/12:30pm 13.4 W 7 9 1008.1 - 0.2 - Mostly clear 10 - - - -
18/12:00pm 14.0 N 6 8 1008.0 R 0.2 Fine Mostly cloudy 35 - - - -
18/11:30am 14.1 NNW 5 7 1008.3 - 0.2 - Mostly clear 10 - - - -
18/11:00am 13.6 SSW 6 9 1009.0 - 0.2 - Mostly clear 10 - - - -
18/10:30am 14.4 WSW 15 18 1008.5 - 0.2 Showers Mostly clear 10 - - - -
18/10:08am 18.0 NW 17 21 1007.2 - 0.0 Showers Mostly clear 10 - - - -
18/10:00am 17.8 NNW 6 9 1006.9 - 0.0 - Mostly clear 10 - - - -
18/09:30am 17.0 NNW 9 11 1007.0 - 0.0 - Mostly clear 10 - - - -
18/09:00am 15.9 NNW 6 9 1007.3 F 0.0 Fine Mostly clear 30 - - - -
18/08:30am 14.7 NNW 9 16 1008.0 - 0.0 - Mostly clear 10 - - - -
18/08:00am 12.1 NW 5 6 1008.5 - 0.0 - Mostly clear 10 - - - -
18/07:30am 8.3 CALM 0 0 1008.7 - 0.0 - Mostly clear 10 - - - -
18/07:00am 8.5 CALM 0 0 1009.0 - 0.0 - Mostly clear 10 - - - -
18/06:41am 8.6 WNW 4 6 1009.1 - 0.0 - Mostly clear 10 - - - -
18/06:30am 8.8 W 3 4 1009.3 - 0.0 Fog patches Mostly clear 10 - - - -
18/06:24am 9.4 SSE 2 5 1009.3 - 0.0 Fog patches - 10 - - - -
18/06:00am 9.7 CALM 0 0 1009.6 F 0.0 Fine Partly cloudy 30 - - - -
18/05:30am 10.5 CALM 0 0 1010.0 - 0.0 - Partly cloudy 10 - - - -
18/05:00am 12.1 S 2 4 1010.5 - 0.0 - Cloudy 10 - - - -
18/04:30am 12.3 N 7 9 1010.7 - 0.0 - Partly cloudy 10 - - - -
18/04:00am 11.0 NW 4 7 1011.1 - 0.0 - Partly cloudy 10 - - - -
18/03:30am 11.6 WNW 3 5 1011.4 - 0.0 - Mostly clear 10 - - - -
18/03:00am 11.7 NW 5 7 1011.9 F 0.0 Fine Mostly cloudy 40 - - - -
18/02:30am 11.9 WNW 5 7 1012.4 - 0.0 - Mostly clear 10 - - - -
18/02:00am 12.0 WSW 1 4 1012.7 - 0.0 - Mostly clear 10 - - - -
18/01:30am 11.5 NW 6 8 1013.4 - 0.0 - Mostly clear 10 - - - -
18/01:00am 12.4 NW 5 7 1013.8 - 0.0 - Mostly clear 10 - - - -
18/12:30am 12.4 NW 7 9 1014.2 - 0.0 - Mostly clear 10 - - - -
18/12:00am 13.0 WNW 6 8 1014.5 F 0.0 Fine Partly cloudy 40 - - - -
 
Date/Time
EST
Temp

°C
Wind Pressure Rain
since 9am
mm
Weather Cloud Vis
km
Sea
Height
m
Swell
Dir
 
Speed
knots
Gust
knots
hPa Trend Height
m
Period
s
Dir
17/11:30pm 12.6 NNW 7 10 1014.8 - 0.0 - - 10 - - - -
17/11:00pm 12.3 N 6 8 1015.3 - 0.0 - - 10 - - - -
17/10:30pm 13.6 N 5 7 1015.7 - 0.0 - - 10 - - - -
17/10:00pm 14.1 NNW 6 8 1016.0 - 0.0 - - 10 - - - -
17/09:30pm 14.1 NNW 2 5 1016.2 - 0.0 - - 10 - - - -
17/09:00pm 14.0 NNW 5 9 1016.3 F 0.0 Fine Partly cloudy 40 - - - -
17/08:30pm 15.4 NNW 8 12 1016.2 - 0.0 - - 10 - - - -
17/08:00pm 15.6 NNW 9 14 1016.4 - 0.0 - Partly cloudy 10 - - - -
17/07:30pm 15.9 NW 8 9 1016.4 - 0.0 - Partly cloudy 10 - - - -
17/07:00pm 16.8 N 7 11 1016.5 - 0.0 - Mostly clear 10 - - - -
17/06:30pm 17.0 N 9 15 1016.5 - 0.0 - Mostly clear 10 - - - -
17/06:00pm 17.6 N 8 10 1016.4 F 0.0 Fine Mostly cloudy 40 - - - -
17/05:30pm 18.4 N 10 15 1016.3 - 0.0 - Mostly clear 10 - - - -
17/05:00pm 19.2 N 10 14 1016.1 - 0.0 - Mostly clear 10 - - - -
17/04:30pm 20.0 N 10 15 1016.3 - 0.0 - Mostly clear 10 - - - -
17/04:00pm 20.6 N 9 14 1016.5 - 0.0 - Mostly clear 10 - - - -
17/03:30pm 21.0 N 7 11 1017.0 - 0.0 - Mostly clear 10 - - - -
17/03:00pm 20.8 N 9 12 1017.3 F 0.0 Fine Partly cloudy 40 - - - -
17/02:30pm 20.2 NNE 8 11 1017.6 - 0.0 - Mostly clear 10 - - - -
17/02:00pm 20.1 NE 6 9 1017.9 - 0.0 - Mostly clear 10 - - - -
17/01:30pm 19.0 NNW 4 7 1018.2 - 0.0 - Mostly clear 10 - - - -
17/01:00pm 19.8 ENE 4 6 1018.7 - 0.0 - Mostly clear 10 - - - -
17/12:30pm 18.4 ENE 2 6 1019.3 - 0.0 - Mostly clear 10 - - - -
17/12:00pm 18.5 NE 6 7 1019.7 F 0.0 Fine Partly cloudy 40 - - - -
17/11:30am 17.3 NNW 4 6 1020.2 - 0.0 - Mostly clear 10 - - - -
17/11:00am 18.2 NE 4 6 1020.5 - 0.0 - Mostly clear 10 - - - -
17/10:30am 16.1 N 5 6 1020.7 - 0.0 - Mostly clear 10 - - - -
17/10:00am 15.1 WNW 5 7 1020.8 - 0.0 - Mostly clear 10 - - - -
17/09:30am 13.8 N 5 6 1021.0 - 0.0 - Mostly clear 10 - - - -
17/09:00am 12.2 NW 7 8 1021.2 F 0.0 Fine Partly cloudy 40 - - - -
17/08:30am 11.5 NW 6 7 1021.3 - 0.0 - Mostly clear 10 - - - -
17/08:00am 10.7 NW 5 6 1021.2 - 0.0 - Mostly clear 10 - - - -
17/07:30am 9.7 NW 3 5 1021.2 - 0.0 - Mostly clear 10 - - - -
17/07:00am 8.9 NE 4 6 1020.8 - 0.0 - Mostly clear 10 - - - -
17/06:30am 8.7 CALM 0 2 1020.8 - 0.0 - - 10 - - - -
17/06:00am 9.1 WNW 7 8 1020.5 F 0.0 Fine Mostly clear 35 - - - -
17/05:30am 9.2 N 5 7 1020.5 - 0.0 - Partly cloudy 10 - - - -
17/05:00am 9.6 NW 6 8 1020.5 - 0.0 - Cloudy 10 - - - -
17/04:30am 9.1 WNW 8 9 1020.4 - 0.0 - Partly cloudy 10 - - - -
17/04:00am 8.7 NW 5 7 1020.2 - 0.0 - - 10 - - - -
17/03:30am 9.3 NW 4 6 1020.3 - 0.0 - - 10 - - - -
17/03:00am 9.3 NW 5 6 1020.3 R 0.0 Fine Partly cloudy 35 - - - -
17/02:30am 9.5 W 4 5 1020.2 - 0.0 - - 10 - - - -
17/02:00am 9.2 NW 1 5 1020.3 - 0.0 - - 10 - - - -
17/01:30am 9.9 NNW 5 7 1020.7 - 0.0 - - 10 - - - -
17/01:00am 9.9 W 3 4 1020.8 - 0.0 - - 10 - - - -
17/12:30am 10.3 NNW 2 4 1020.7 - 0.0 - - 10 - - - -
17/12:00am 9.7 W 4 5 1020.9 R 0.0 Fine Partly cloudy 35 - - - -
 
Date/Time
EST
Temp

°C
Wind Pressure Rain
since 9am
mm
Weather Cloud Vis
km
Sea
Height
m
Swell
Dir
 
Speed
knots
Gust
knots
hPa Trend Height
m
Period
s
Dir
16/11:30pm 10.3 WNW 3 5 1020.9 - 0.0 - Mostly clear 10 - - - -
16/11:00pm 10.4 NW 3 5 1020.9 - 0.0 - Mostly clear 10 - - - -
16/10:30pm 12.0 NW 5 6 1021.1 - 0.0 - Mostly clear 10 - - - -
16/10:00pm 12.3 N 4 5 1020.9 - 0.0 - Mostly clear 10 - - - -
16/09:30pm 12.9 N 5 7 1020.9 - 0.0 - Mostly clear 10 - - - -
16/09:00pm 12.2 N 4 5 1020.8 F 0.0 Fine Mostly cloudy 35 - - - -
16/08:30pm 13.4 N 7 10 1020.7 - 0.0 - Mostly clear 10 - - - -
16/08:00pm 13.2 NNW 2 5 1020.5 - 0.0 - Mostly clear 10 - - - -
16/07:30pm 13.0 NW 3 4 1020.5 - 0.0 - Mostly clear 10 - - - -
16/07:00pm 14.0 NNE 8 10 1020.5 - 0.0 - Mostly clear 10 - - - -
16/06:30pm 14.8 NE 8 11 1020.3 - 0.0 - Mostly clear 10 - - - -
16/06:00pm 15.2 ENE 7 12 1020.1 F 0.0 Fine Mostly cloudy 40 - - - -
16/05:30pm 16.1 NE 8 10 1020.1 - 0.0 - Mostly clear 10 - - - -
16/05:00pm 17.0 NE 9 12 1019.9 - 0.0 - Mostly clear 10 - - - -
16/04:30pm 18.3 NE 6 8 1019.9 - 0.0 - Mostly clear 10 - - - -
16/04:00pm 17.9 SE 6 9 1019.8 - 0.0 - Mostly clear 10 - - - -
16/03:30pm 18.1 NNE 2 4 1019.8 - 0.0 - Mostly clear 10 - - - -
16/03:00pm 18.8 NNE 1 7 1020.0 F 0.0 Fine Partly cloudy 40 - - - -
16/02:30pm 18.5 SE 5 9 1020.3 - 0.0 - Mostly clear 10 - - - -
16/02:00pm 17.6 SSE 6 8 1020.5 - 0.0 - Mostly clear 10 - - - -
16/01:30pm 17.2 SE 8 10 1020.6 - 0.0 - Mostly clear 10 - - - -
16/01:00pm 18.4 ENE 4 8 1020.9 - 0.0 - Mostly clear 10 - - - -
16/12:30pm 18.2 NNE 6 8 1021.3 - 0.0 - Mostly clear 10 - - - -
16/12:00pm 17.6 NNE 6 8 1022.0 F 0.0 Fine Partly cloudy 40 - - - -
16/11:30am 16.7 N 4 7 1022.4 - 0.0 - Mostly clear 10 - - - -
16/11:00am 15.7 NNE 5 7 1022.6 - 0.0 - Mostly clear 10 - - - -
16/10:30am 14.6 WNW 7 8 1022.9 - 0.0 - Mostly clear 10 - - - -
16/10:00am 13.1 NW 7 8 1023.2 - 0.0 - Mostly clear 10 - - - -
16/09:30am 11.6 WNW 8 9 1023.5 - 0.0 - Mostly clear 10 - - - -
16/09:00am 10.5 NW 8 9 1023.9 F 0.4 Fine Mostly clear 35 - - - -
16/08:30am 9.6 WNW 8 9 1024.1 - 0.0 - Mostly clear 10 - - - -
16/08:00am 8.4 NW 7 8 1024.1 - 0.0 - Mostly clear 10 - - - -
16/07:30am 7.4 WNW 8 9 1024.1 - 0.0 - Mostly clear 10 - - - -
16/07:00am 7.0 NW 8 9 1023.8 - 0.0 - Mostly clear 10 - - - -
16/06:30am 7.0 NW 7 9 1023.8 - 0.0 - Mostly clear 10 - - - -
16/06:00am 7.3 NW 8 10 1023.7 F 0.4 Fine Mostly clear 35 - - - -
16/05:30am 7.4 NW 8 10 1023.7 - 0.4 - Mostly clear 10 - - - -

Other Formats:

Comma delimited format used in spreadsheet applications
http://www.bom.gov.au/fwo/IDT60701/IDT60701.94975.axf

JavaScript Object Notation format (JSON) in row-major order
http://www.bom.gov.au/fwo/IDT60701/IDT60701.94975.json